createdAt,value
2017-10-19T00:01:17.945Z,69.80
2017-10-19T00:03:45.585Z,70.10
2017-10-19T00:06:13.203Z,69.70
2017-10-19T00:08:40.819Z,70.00
2017-10-19T00:11:08.440Z,70.10
2017-10-19T00:13:36.036Z,70.00
2017-10-19T00:16:03.658Z,69.70
2017-10-19T00:18:31.264Z,69.90
2017-10-19T00:20:58.905Z,70.60
2017-10-19T00:23:26.518Z,70.90
2017-10-19T00:25:54.882Z,71.00
2017-10-19T00:28:22.514Z,70.80
2017-10-19T00:30:50.152Z,70.70
2017-10-19T00:33:17.845Z,70.40
2017-10-19T00:35:45.441Z,70.10
2017-10-19T00:38:13.852Z,69.90
2017-10-19T00:40:41.459Z,70.60
2017-10-19T00:43:09.066Z,70.40
2017-10-19T00:45:36.691Z,70.60
2017-10-19T00:48:05.052Z,70.40
2017-10-19T00:50:32.673Z,70.50
2017-10-19T00:53:00.284Z,70.40
2017-10-19T00:55:27.921Z,70.70
2017-10-19T00:57:55.522Z,70.90
2017-10-19T01:00:23.898Z,70.80
2017-10-19T01:02:51.523Z,70.70
2017-10-19T01:05:19.119Z,70.60
2017-10-19T01:07:46.741Z,70.20
2017-10-19T01:10:14.349Z,70.70
2017-10-19T01:12:42.750Z,70.70
2017-10-19T01:15:10.348Z,70.50
2017-10-19T01:17:37.959Z,70.10
2017-10-19T01:20:05.584Z,70.70
2017-10-19T01:22:33.188Z,71.00
2017-10-19T01:25:00.812Z,71.30
2017-10-19T01:27:28.421Z,70.90
2017-10-19T01:29:56.208Z,71.10
2017-10-19T01:32:23.810Z,71.10
2017-10-19T01:34:52.179Z,71.20
2017-10-19T01:37:19.914Z,71.10
2017-10-19T01:39:47.509Z,71.30
2017-10-19T01:42:15.133Z,71.30
2017-10-19T01:44:42.734Z,71.50
2017-10-19T01:47:10.381Z,71.50
2017-10-19T01:49:49.793Z,71.40
2017-10-19T01:52:17.417Z,71.60
2017-10-19T01:54:45.014Z,71.40
2017-10-19T01:57:12.613Z,71.60
2017-10-19T01:59:41.023Z,72.80
2017-10-19T02:02:08.633Z,71.90
2017-10-19T02:04:36.265Z,71.90
2017-10-19T02:07:03.869Z,72.00
2017-10-19T02:09:31.466Z,72.00
2017-10-19T02:11:59.088Z,72.00
2017-10-19T02:14:26.695Z,71.90
2017-10-19T02:16:54.321Z,72.00
2017-10-19T02:19:22.687Z,72.20
2017-10-19T02:21:50.319Z,72.20
2017-10-19T02:24:17.933Z,72.10
2017-10-19T02:26:46.330Z,72.10
2017-10-19T02:29:13.927Z,72.10
2017-10-19T02:31:41.529Z,72.20
2017-10-19T02:34:09.919Z,72.20
2017-10-19T02:36:38.291Z,71.90
2017-10-19T02:39:06.726Z,72.00
2017-10-19T02:41:34.324Z,71.90
2017-10-19T02:44:02.689Z,72.00
2017-10-19T02:46:30.326Z,71.90
2017-10-19T02:48:57.926Z,72.30
2017-10-19T02:51:26.326Z,72.00
2017-10-19T02:53:54.039Z,72.00
2017-10-19T02:56:21.629Z,72.20
2017-10-19T02:58:50.026Z,72.60
2017-10-19T03:01:17.630Z,72.40
2017-10-19T03:03:45.264Z,72.60
2017-10-19T03:06:12.860Z,72.40
2017-10-19T03:08:40.493Z,72.20
2017-10-19T03:11:08.113Z,72.30
2017-10-19T03:13:36.477Z,72.60
2017-10-19T03:16:04.121Z,72.60
2017-10-19T03:18:31.735Z,72.60
2017-10-19T03:20:59.334Z,72.60
2017-10-19T03:23:26.949Z,72.60
2017-10-19T03:25:54.552Z,72.60
2017-10-19T03:28:22.182Z,72.70
2017-10-19T03:30:49.779Z,72.60
2017-10-19T03:33:17.418Z,72.80
2017-10-19T03:35:45.024Z,72.70
2017-10-19T03:38:12.634Z,72.80
2017-10-19T03:40:40.253Z,72.60
2017-10-19T03:43:08.621Z,72.60
2017-10-19T03:45:36.253Z,72.50
2017-10-19T03:48:03.841Z,72.60
2017-10-19T03:50:31.469Z,72.50
2017-10-19T03:52:59.068Z,72.40
2017-10-19T03:55:26.680Z,72.70
2017-10-19T03:57:54.305Z,72.70
2017-10-19T04:00:22.663Z,72.70
2017-10-19T04:02:50.307Z,72.70
2017-10-19T04:05:17.909Z,72.60
2017-10-19T04:07:46.273Z,72.80
2017-10-19T04:10:14.688Z,72.90
2017-10-19T04:12:42.278Z,72.70
2017-10-19T04:15:09.915Z,73.20
2017-10-19T04:17:37.513Z,73.30
2017-10-19T04:20:05.114Z,73.30
2017-10-19T04:22:33.538Z,73.20
2017-10-19T04:25:01.141Z,73.20
2017-10-19T04:27:29.562Z,73.30
2017-10-19T04:29:57.172Z,73.20
2017-10-19T04:32:24.778Z,73.40
2017-10-19T04:34:52.397Z,73.50
2017-10-19T04:37:20.768Z,73.30
2017-10-19T04:39:48.409Z,73.30
2017-10-19T04:42:16.012Z,73.30
2017-10-19T04:44:44.442Z,73.30
2017-10-19T04:47:12.103Z,73.30
2017-10-19T04:49:39.705Z,74.20
2017-10-19T04:52:08.122Z,73.40
2017-10-19T04:54:35.717Z,73.30
2017-10-19T04:57:04.158Z,73.30
2017-10-19T04:59:31.758Z,73.20
2017-10-19T05:01:59.352Z,73.20
2017-10-19T05:04:27.745Z,73.40
2017-10-19T05:06:55.353Z,73.40
2017-10-19T05:09:22.989Z,72.90
2017-10-19T05:11:50.603Z,73.30
2017-10-19T05:14:19.012Z,73.40
2017-10-19T05:16:46.617Z,73.30
2017-10-19T05:19:14.226Z,73.40
2017-10-19T05:21:41.860Z,73.40
2017-10-19T05:24:10.229Z,73.50
2017-10-19T05:26:37.864Z,73.50
2017-10-19T05:29:06.324Z,73.50
2017-10-19T05:31:33.955Z,73.60
2017-10-19T05:34:02.325Z,73.50
2017-10-19T05:36:30.695Z,73.40
2017-10-19T05:38:58.318Z,73.40
2017-10-19T05:41:25.926Z,73.40
2017-10-19T05:43:54.324Z,73.30
2017-10-19T05:46:21.936Z,73.20
2017-10-19T05:48:49.601Z,73.50
2017-10-19T05:51:17.204Z,73.30
2017-10-19T05:53:45.573Z,73.40
2017-10-19T05:56:13.969Z,73.30
2017-10-19T05:58:41.576Z,73.20
2017-10-19T06:01:09.220Z,73.40
2017-10-19T06:03:36.821Z,73.40
2017-10-19T06:06:04.428Z,73.40
2017-10-19T06:08:32.062Z,73.20
2017-10-19T06:11:00.425Z,74.00
2017-10-19T06:13:28.841Z,73.50
2017-10-19T06:15:56.453Z,73.50
2017-10-19T06:18:24.052Z,73.40
2017-10-19T06:20:51.698Z,73.30
2017-10-19T06:23:20.063Z,73.40
2017-10-19T06:25:47.701Z,73.30
2017-10-19T06:28:15.311Z,74.20
2017-10-19T06:30:42.912Z,73.30
2017-10-19T06:33:10.537Z,73.10
2017-10-19T06:35:38.136Z,73.20
2017-10-19T06:38:05.797Z,73.30
2017-10-19T06:40:33.401Z,73.30
2017-10-19T06:43:01.852Z,73.40
2017-10-19T06:45:29.477Z,73.40
2017-10-19T06:47:57.119Z,73.30
2017-10-19T06:50:24.749Z,73.20
2017-10-19T06:52:52.356Z,73.30
2017-10-19T06:55:19.962Z,73.30
2017-10-19T06:57:47.598Z,73.60
2017-10-19T07:00:15.204Z,73.60
2017-10-19T07:02:43.611Z,73.50
2017-10-19T07:05:11.210Z,73.40
2017-10-19T07:07:38.835Z,73.50
2017-10-19T07:10:06.493Z,73.50
2017-10-19T07:12:34.097Z,73.80
2017-10-19T07:15:01.726Z,73.70
2017-10-19T07:17:29.337Z,73.70
2017-10-19T07:19:56.940Z,73.90
2017-10-19T07:22:24.577Z,75.30
2017-10-19T07:24:52.945Z,74.20
2017-10-19T07:27:21.356Z,74.50
2017-10-19T07:29:48.985Z,74.50
2017-10-19T07:32:16.586Z,74.20
2017-10-19T07:34:44.209Z,74.50
2017-10-19T07:37:12.577Z,74.70
2017-10-19T07:39:40.207Z,74.60
2017-10-19T07:42:07.804Z,74.20
2017-10-19T07:44:36.171Z,75.40
2017-10-19T07:47:05.316Z,74.40
2017-10-19T07:49:32.913Z,74.40
2017-10-19T07:52:00.567Z,74.10
2017-10-19T07:54:28.161Z,74.20
2017-10-19T07:56:55.762Z,74.30
2017-10-19T07:59:23.387Z,73.90
2017-10-19T08:01:51.753Z,74.20
2017-10-19T08:04:19.378Z,74.20
2017-10-19T08:06:46.977Z,74.70
2017-10-19T08:09:16.113Z,74.50
2017-10-19T08:11:43.843Z,74.40
2017-10-19T08:14:12.389Z,73.70
2017-10-19T08:16:40.009Z,74.30
2017-10-19T08:19:08.373Z,73.90
2017-10-19T08:21:37.034Z,74.40
2017-10-19T08:24:04.629Z,74.20
2017-10-19T08:26:33.033Z,75.10
2017-10-19T08:29:00.657Z,75.10
2017-10-19T08:31:29.034Z,73.90
2017-10-19T08:33:57.453Z,74.20
2017-10-19T08:36:25.062Z,74.20
2017-10-19T08:38:52.765Z,73.90
2017-10-19T08:41:20.380Z,74.60
2017-10-19T08:43:48.026Z,74.90
2017-10-19T08:46:15.624Z,74.90
2017-10-19T08:48:43.998Z,75.00
2017-10-19T08:51:12.400Z,75.80
2017-10-19T08:53:40.011Z,75.00
2017-10-19T08:56:07.646Z,74.90
2017-10-19T08:58:35.247Z,74.30
2017-10-19T09:01:03.733Z,75.20
2017-10-19T09:03:31.352Z,75.10
2017-10-19T09:05:58.952Z,74.00
2017-10-19T09:08:26.690Z,74.80
2017-10-19T09:10:54.331Z,74.60
2017-10-19T09:13:22.149Z,74.80
2017-10-19T09:15:49.769Z,74.70
2017-10-19T09:18:17.467Z,73.90
2017-10-19T09:20:45.081Z,73.80
2017-10-19T09:23:12.741Z,73.60
2017-10-19T09:25:40.417Z,73.90
2017-10-19T09:28:08.018Z,74.50
2017-10-19T09:30:35.697Z,74.30
2017-10-19T09:33:04.061Z,74.00
2017-10-19T09:35:32.561Z,74.00
2017-10-19T09:38:00.165Z,73.90
2017-10-19T09:40:27.770Z,74.00
2017-10-19T09:42:56.163Z,74.00
2017-10-19T09:45:23.764Z,73.80
2017-10-19T09:47:51.402Z,73.70
2017-10-19T09:50:19.005Z,73.40
2017-10-19T09:52:46.647Z,73.50
2017-10-19T09:55:14.265Z,73.40
2017-10-19T09:57:41.865Z,73.50
2017-10-19T10:00:10.578Z,73.10
2017-10-19T10:02:38.186Z,72.90
2017-10-19T10:05:05.815Z,72.40
2017-10-19T10:07:34.193Z,72.90
2017-10-19T10:10:02.597Z,72.70
2017-10-19T10:12:30.197Z,72.60
2017-10-19T10:14:57.796Z,72.90
2017-10-19T10:17:26.213Z,72.80
2017-10-19T10:19:53.817Z,72.80
2017-10-19T10:22:21.451Z,72.60
2017-10-19T10:24:49.050Z,72.90
2017-10-19T10:27:16.690Z,72.70
2017-10-19T10:29:44.294Z,73.20
2017-10-19T10:32:12.657Z,73.50
2017-10-19T10:34:41.325Z,73.20
2017-10-19T10:37:08.979Z,73.20
2017-10-19T10:39:36.621Z,73.10
2017-10-19T10:42:04.222Z,73.20
2017-10-19T10:44:31.875Z,73.00
2017-10-19T10:46:59.473Z,73.20
2017-10-19T10:49:27.090Z,72.90
2017-10-19T10:51:54.724Z,73.20
2017-10-19T10:54:22.326Z,72.70
2017-10-19T10:56:50.005Z,72.90
2017-10-19T10:59:18.424Z,72.90
2017-10-19T11:01:46.062Z,72.70
2017-10-19T11:04:13.653Z,72.50
2017-10-19T11:06:41.253Z,72.80
2017-10-19T11:09:09.649Z,72.70
2017-10-19T11:11:38.024Z,72.80
2017-10-19T11:14:06.450Z,72.20
2017-10-19T11:16:34.077Z,72.10
2017-10-19T11:19:01.797Z,72.20
2017-10-19T11:21:29.409Z,71.70
2017-10-19T11:23:57.009Z,72.60
2017-10-19T11:26:24.633Z,71.50
2017-10-19T11:28:52.225Z,71.90
2017-10-19T11:31:19.849Z,71.50
2017-10-19T11:33:47.456Z,71.60
2017-10-19T11:36:15.109Z,71.20
2017-10-19T11:38:42.725Z,71.00
2017-10-19T11:41:10.333Z,71.00
2017-10-19T11:43:37.978Z,70.90
2017-10-19T11:46:05.581Z,71.40
2017-10-19T11:48:33.982Z,71.80
2017-10-19T11:51:01.582Z,71.70
2017-10-19T11:53:29.233Z,71.30
2017-10-19T11:55:56.839Z,71.30
2017-10-19T11:58:24.442Z,71.60
2017-10-19T12:00:52.085Z,72.30
2017-10-19T12:03:20.473Z,71.00
2017-10-19T12:05:48.105Z,70.90
2017-10-19T12:08:16.473Z,71.20
2017-10-19T12:10:44.107Z,71.00
2017-10-19T12:13:11.713Z,71.10
2017-10-19T12:15:40.096Z,70.70
2017-10-19T12:18:08.495Z,71.00
2017-10-19T12:20:36.206Z,71.00
2017-10-19T12:23:03.838Z,70.50
2017-10-19T12:25:31.434Z,71.20
2017-10-19T12:27:59.073Z,71.40
2017-10-19T12:30:26.704Z,70.40
2017-10-19T12:32:54.317Z,70.70
2017-10-19T12:35:21.942Z,70.60
2017-10-19T12:37:49.537Z,71.00
2017-10-19T12:40:17.175Z,71.10
2017-10-19T12:42:44.769Z,70.60
2017-10-19T12:45:13.237Z,70.80
2017-10-19T12:47:40.853Z,70.70
2017-10-19T12:50:08.461Z,70.50
2017-10-19T12:52:36.105Z,70.50
2017-10-19T12:55:04.223Z,70.50
2017-10-19T12:57:32.637Z,70.50
2017-10-19T13:00:00.242Z,70.50
2017-10-19T13:02:27.869Z,70.30
2017-10-19T13:04:55.475Z,70.10
2017-10-19T13:07:23.845Z,70.40
2017-10-19T13:09:51.482Z,70.30
2017-10-19T13:12:19.129Z,70.60
2017-10-19T13:14:46.784Z,70.60
2017-10-19T13:17:14.385Z,70.80
2017-10-19T13:19:42.123Z,70.80
2017-10-19T13:22:09.902Z,70.70
2017-10-19T13:24:37.602Z,70.80
2017-10-19T13:27:06.130Z,70.90
2017-10-19T13:29:33.879Z,70.80
2017-10-19T13:32:01.652Z,70.80
2017-10-19T13:34:29.248Z,70.60
2017-10-19T13:36:56.891Z,70.70
2017-10-19T13:39:24.501Z,70.80
2017-10-19T13:41:52.105Z,70.80
2017-10-19T13:44:20.505Z,71.00
2017-10-19T13:46:48.123Z,70.80
2017-10-19T13:49:15.765Z,70.90
2017-10-19T13:51:43.380Z,71.00
2017-10-19T13:54:11.022Z,71.10
2017-10-19T13:56:38.637Z,71.10
2017-10-19T13:59:06.996Z,71.10
2017-10-19T14:01:34.630Z,71.10
2017-10-19T14:04:02.225Z,71.00
2017-10-19T14:06:30.645Z,71.00
2017-10-19T14:08:58.245Z,70.80
2017-10-19T14:11:25.893Z,71.10
2017-10-19T14:13:53.489Z,71.20
2017-10-19T14:16:21.104Z,71.30
2017-10-19T14:18:48.732Z,71.20
2017-10-19T14:21:16.333Z,71.10
2017-10-19T14:23:43.966Z,71.00
2017-10-19T14:26:11.578Z,71.10
2017-10-19T14:28:39.216Z,71.00
2017-10-19T14:31:06.815Z,71.00
2017-10-19T14:33:35.193Z,71.00
2017-10-19T14:36:03.597Z,70.90
2017-10-19T14:38:31.193Z,70.90
2017-10-19T14:40:58.850Z,70.70
2017-10-19T14:43:26.468Z,70.70
2017-10-19T14:45:54.113Z,70.60
2017-10-19T14:48:22.493Z,70.70
2017-10-19T14:50:50.861Z,70.70
2017-10-19T14:53:18.495Z,70.60
2017-10-19T14:55:46.097Z,70.70
2017-10-19T14:58:14.506Z,70.70
2017-10-19T15:00:42.106Z,70.60
2017-10-19T15:03:09.746Z,70.60
2017-10-19T15:05:37.345Z,70.40
2017-10-19T15:08:04.954Z,70.40
2017-10-19T15:10:33.026Z,70.50
2017-10-19T15:13:00.798Z,70.30
2017-10-19T15:15:28.664Z,70.50
2017-10-19T15:17:56.424Z,70.40
2017-10-19T15:20:24.196Z,70.40
2017-10-19T15:22:51.965Z,70.40
2017-10-19T15:25:19.767Z,70.40
2017-10-19T15:27:47.542Z,70.40
2017-10-19T15:30:15.270Z,70.30
2017-10-19T15:32:43.107Z,70.30
2017-10-19T15:35:10.860Z,70.40
2017-10-19T15:37:38.650Z,70.40
2017-10-19T15:40:08.814Z,70.40
2017-10-19T15:42:36.713Z,70.30
2017-10-19T15:45:05.434Z,70.40
2017-10-19T15:47:33.155Z,70.30
2017-10-19T15:50:01.817Z,70.40
2017-10-19T15:52:30.399Z,70.40
2017-10-19T15:54:58.294Z,70.30
2017-10-19T15:57:26.100Z,71.30
2017-10-19T15:59:53.872Z,70.40
2017-10-19T16:02:21.671Z,70.30
2017-10-19T16:04:50.224Z,70.40
2017-10-19T16:07:18.003Z,70.30
2017-10-19T16:09:45.779Z,70.30
2017-10-19T16:12:13.574Z,70.30
2017-10-19T16:14:41.318Z,70.20
2017-10-19T16:17:09.814Z,70.50
2017-10-19T16:19:37.620Z,70.40
2017-10-19T16:22:05.381Z,70.40
2017-10-19T16:24:33.914Z,70.40
2017-10-19T16:27:02.413Z,70.60
2017-10-19T16:29:30.200Z,70.40
2017-10-19T16:31:57.960Z,70.50
2017-10-19T16:34:25.712Z,70.50
2017-10-19T16:36:53.486Z,70.70
2017-10-19T16:39:21.217Z,70.60
2017-10-19T16:41:49.762Z,70.50
2017-10-19T16:44:17.517Z,70.50
2017-10-19T16:46:45.329Z,70.50
2017-10-19T16:49:13.832Z,70.50
2017-10-19T16:51:41.594Z,70.30
2017-10-19T16:54:09.400Z,70.40
2017-10-19T16:56:37.152Z,70.50
2017-10-19T16:59:04.825Z,70.60
2017-10-19T17:01:32.442Z,70.50
2017-10-19T17:04:00.078Z,70.70
2017-10-19T17:06:28.461Z,70.80
2017-10-19T17:08:56.825Z,70.80
2017-10-19T17:11:24.454Z,70.80
2017-10-19T17:13:52.114Z,70.50
2017-10-19T17:16:19.902Z,70.40
2017-10-19T17:18:47.519Z,70.60
2017-10-19T17:21:15.205Z,70.80
2017-10-19T17:23:42.833Z,71.00
2017-10-19T17:26:10.630Z,70.70
2017-10-19T17:28:38.267Z,71.00
2017-10-19T17:31:05.920Z,71.20
2017-10-19T17:33:33.590Z,71.00
2017-10-19T17:36:01.208Z,70.90
2017-10-19T17:38:28.940Z,71.20
2017-10-19T17:40:56.627Z,71.40
2017-10-19T17:43:24.245Z,71.40
2017-10-19T17:45:51.927Z,71.30
2017-10-19T17:48:19.567Z,71.30
2017-10-19T17:50:47.221Z,71.10
2017-10-19T17:53:14.834Z,71.30
2017-10-19T17:55:42.468Z,71.40
2017-10-19T17:58:10.100Z,71.20
2017-10-19T18:00:37.897Z,71.20
2017-10-19T18:03:05.720Z,71.30
2017-10-19T18:05:34.298Z,71.60
2017-10-19T18:08:02.942Z,71.50
2017-10-19T18:10:30.736Z,71.30
2017-10-19T18:12:59.345Z,71.40
2017-10-19T18:15:27.147Z,71.30
2017-10-19T18:17:54.909Z,71.40
2017-10-19T18:20:22.797Z,71.60
2017-10-19T18:22:50.587Z,71.70
2017-10-19T18:25:19.137Z,71.80
2017-10-19T18:27:47.643Z,71.60
2017-10-19T18:30:15.789Z,72.30
2017-10-19T18:32:43.552Z,71.70
2017-10-19T18:35:11.428Z,71.60
2017-10-19T18:37:39.521Z,71.70
2017-10-19T18:40:08.223Z,71.90
2017-10-19T18:42:36.159Z,71.70
2017-10-19T18:45:04.838Z,72.20
2017-10-19T18:47:32.803Z,72.00
2017-10-19T18:50:00.576Z,72.20
2017-10-19T18:52:28.314Z,71.90
2017-10-19T18:54:56.112Z,71.80
2017-10-19T18:57:23.856Z,72.00
2017-10-19T18:59:51.645Z,72.00
2017-10-19T19:02:19.250Z,71.90
2017-10-19T19:04:46.930Z,71.90
2017-10-19T19:07:14.534Z,72.00
2017-10-19T19:09:42.145Z,72.90
2017-10-19T19:12:09.781Z,72.00
2017-10-19T19:14:38.058Z,71.80
2017-10-19T19:17:05.692Z,71.90
2017-10-19T19:19:33.311Z,72.00
2017-10-19T19:22:00.967Z,72.10
2017-10-19T19:24:28.606Z,72.10
2017-10-19T19:26:56.245Z,72.40
2017-10-19T19:29:24.650Z,72.60
2017-10-19T19:31:52.262Z,72.30
2017-10-19T19:34:19.904Z,72.50
2017-10-19T19:36:47.561Z,72.40
2017-10-19T19:39:15.232Z,72.40
2017-10-19T19:41:42.834Z,72.40
2017-10-19T19:44:11.356Z,72.30
2017-10-19T19:46:39.321Z,72.20
2017-10-19T19:49:07.079Z,72.40
2017-10-19T19:51:34.907Z,72.50
2017-10-19T19:56:54.533Z,72.30
2017-10-19T19:59:23.493Z,72.40
2017-10-19T20:01:51.335Z,72.60
2017-10-19T20:07:09.517Z,72.70
2017-10-19T20:09:38.218Z,72.60
2017-10-19T20:12:06.718Z,72.50
2017-10-19T20:14:34.601Z,72.40
2017-10-19T20:17:02.707Z,72.40
2017-10-19T20:19:30.457Z,72.60
2017-10-19T20:21:58.232Z,72.40
2017-10-19T20:24:25.965Z,72.60
2017-10-19T20:26:53.750Z,72.60
2017-10-19T20:29:21.483Z,72.50
2017-10-19T20:31:49.294Z,72.60
2017-10-19T20:34:17.374Z,72.60
2017-10-19T20:36:45.948Z,72.60
2017-10-19T20:39:13.857Z,72.60
2017-10-19T20:41:42.973Z,72.60
2017-10-19T20:44:10.601Z,72.60
2017-10-19T20:46:38.966Z,72.30
2017-10-19T20:49:07.369Z,73.60
2017-10-19T20:51:36.506Z,72.70
2017-10-19T20:54:04.270Z,72.60
2017-10-19T20:56:31.899Z,72.50
2017-10-19T20:58:59.506Z,72.70
2017-10-19T21:01:27.154Z,72.80
2017-10-19T21:03:54.749Z,72.90
2017-10-19T21:06:22.362Z,72.80
2017-10-19T21:08:49.994Z,72.80
2017-10-19T21:11:18.366Z,72.80
2017-10-19T21:13:46.773Z,73.00
2017-10-19T21:16:14.369Z,72.90
2017-10-19T21:18:42.745Z,72.90
2017-10-19T21:21:10.389Z,72.80
2017-10-19T21:23:38.077Z,72.90
2017-10-19T21:26:05.858Z,72.90
2017-10-19T21:28:34.231Z,72.90
2017-10-19T21:31:01.843Z,72.80
2017-10-19T21:33:29.467Z,73.50
2017-10-19T21:35:57.837Z,73.00
2017-10-19T21:38:25.458Z,72.80
2017-10-19T21:40:53.055Z,72.90
2017-10-19T21:43:20.694Z,72.80
2017-10-19T21:45:48.509Z,72.90
2017-10-19T21:48:16.890Z,73.00
2017-10-19T21:50:44.553Z,72.90
2017-10-19T21:53:12.393Z,72.90
2017-10-19T21:55:41.003Z,72.80
2017-10-19T21:58:08.821Z,72.70
2017-10-19T22:00:36.458Z,73.00
2017-10-19T22:03:04.167Z,72.90
2017-10-19T22:05:32.544Z,73.10
2017-10-19T22:08:00.209Z,72.90
2017-10-19T22:10:27.935Z,73.80
2017-10-19T22:12:55.571Z,73.20
2017-10-19T22:15:23.325Z,73.00
2017-10-19T22:17:50.962Z,73.00
2017-10-19T22:20:18.563Z,73.20
2017-10-19T22:22:46.169Z,72.90
2017-10-19T22:25:13.797Z,73.20
2017-10-19T22:27:41.427Z,73.00
2017-10-19T22:30:09.080Z,72.80
2017-10-19T22:32:37.444Z,73.00
2017-10-19T22:35:05.847Z,72.90
2017-10-19T22:37:34.226Z,73.00
2017-10-19T22:40:01.826Z,72.90
2017-10-19T22:42:29.459Z,72.90
2017-10-19T22:44:57.081Z,72.90
2017-10-19T22:47:24.732Z,72.70
2017-10-19T22:49:53.186Z,73.00
2017-10-19T22:52:20.827Z,73.10
2017-10-19T22:54:48.445Z,72.90
2017-10-19T22:57:16.050Z,72.90
2017-10-19T22:59:43.695Z,73.10
2017-10-19T23:02:11.406Z,72.90
2017-10-19T23:04:39.036Z,73.00
2017-10-19T23:07:06.660Z,72.90
2017-10-19T23:09:35.065Z,73.00
2017-10-19T23:12:02.673Z,72.80
2017-10-19T23:14:30.284Z,73.00
2017-10-19T23:16:57.926Z,73.30
2017-10-19T23:19:26.306Z,73.40
2017-10-19T23:21:54.709Z,73.30
2017-10-19T23:24:22.334Z,73.20
2017-10-19T23:26:49.972Z,73.20
2017-10-19T23:29:17.580Z,73.20
2017-10-19T23:31:45.959Z,73.20
2017-10-19T23:34:13.593Z,73.10
2017-10-19T23:36:41.213Z,73.30
2017-10-19T23:39:08.845Z,73.20
2017-10-19T23:41:36.458Z,73.00
2017-10-19T23:44:04.098Z,73.20
2017-10-19T23:46:31.702Z,73.10
2017-10-19T23:48:59.302Z,73.30
2017-10-19T23:51:26.928Z,73.50
2017-10-19T23:53:55.316Z,73.20
2017-10-19T23:56:23.709Z,73.10
2017-10-19T23:58:51.305Z,73.00
